createdAt,value
2019-02-23T00:00:45.651Z,101007.68
2019-02-23T00:03:35.225Z,101004.24
2019-02-23T00:06:29.876Z,101013.75
2019-02-23T00:09:16.263Z,101003.96
2019-02-23T00:12:05.620Z,101016.59
2019-02-23T00:14:54.694Z,101016.83
2019-02-23T00:17:44.896Z,101023.98
2019-02-23T00:20:34.203Z,101031.38
2019-02-23T00:23:23.866Z,101032.69
2019-02-23T00:26:14.400Z,101036.02
2019-02-23T00:29:03.777Z,101043.27
2019-02-23T00:31:53.298Z,101054.72
2019-02-23T00:34:42.584Z,101050.64
2019-02-23T00:37:31.801Z,101044.20
2019-02-23T00:40:21.142Z,101052.29
2019-02-23T00:43:10.364Z,101054.22
2019-02-23T00:46:00.130Z,101047.89
2019-02-23T00:48:49.746Z,101052.74
2019-02-23T00:51:39.292Z,101055.73
2019-02-23T00:54:28.848Z,101064.28
2019-02-23T00:57:18.516Z,101062.95
2019-02-23T01:00:09.273Z,101067.80
2019-02-23T01:02:58.827Z,101066.47
2019-02-23T01:05:48.507Z,101066.22
2019-02-23T01:08:38.053Z,101068.59
2019-02-23T01:11:27.443Z,101063.01
2019-02-23T01:14:17.098Z,101063.01
2019-02-23T01:17:06.677Z,101071.20
2019-02-23T01:19:57.027Z,101068.94
2019-02-23T01:22:46.612Z,101077.10
2019-02-23T01:25:36.135Z,101076.30
2019-02-23T01:28:25.843Z,101079.59
2019-02-23T01:31:15.402Z,101071.75
2019-02-23T01:34:04.684Z,101076.27
2019-02-23T01:36:54.017Z,101067.79
2019-02-23T01:39:43.619Z,101071.00
2019-02-23T01:42:33.191Z,101073.87
2019-02-23T01:45:23.052Z,101073.87
2019-02-23T01:48:12.473Z,101074.45
2019-02-23T01:51:01.929Z,101075.52
2019-02-23T01:53:51.274Z,101079.54
2019-02-23T01:56:40.791Z,101080.34
2019-02-23T01:59:30.123Z,101083.98
2019-02-23T02:02:19.704Z,101082.98
2019-02-23T02:05:09.514Z,101076.98
2019-02-23T02:07:58.959Z,101082.19
2019-02-23T02:10:48.229Z,101079.10
2019-02-23T02:13:37.552Z,101086.95
2019-02-23T02:16:27.231Z,101094.81
2019-02-23T02:19:16.533Z,101090.06
2019-02-23T02:22:06.888Z,101087.16
2019-02-23T02:24:56.405Z,101092.86
2019-02-23T02:27:45.875Z,101093.79
2019-02-23T02:30:35.183Z,101083.75
2019-02-23T02:33:24.515Z,101090.16
2019-02-23T02:36:14.139Z,101094.22
2019-02-23T02:39:05.206Z,101103.67
2019-02-23T02:41:54.569Z,101106.88
2019-02-23T02:44:44.365Z,101117.72
2019-02-23T02:47:33.597Z,101126.80
2019-02-23T02:50:24.572Z,101124.77
2019-02-23T02:53:13.829Z,101121.52
2019-02-23T02:56:03.478Z,101110.42
2019-02-23T02:58:52.765Z,101117.09
2019-02-23T03:01:42.402Z,101119.08
2019-02-23T03:04:32.075Z,101115.88
2019-02-23T03:07:21.739Z,101122.91
2019-02-23T03:10:10.927Z,101125.41
2019-02-23T03:13:00.420Z,101135.20
2019-02-23T03:15:49.990Z,101139.75
2019-02-23T03:18:39.342Z,101146.99
2019-02-23T03:21:28.702Z,101149.91
2019-02-23T03:24:18.101Z,101159.64
2019-02-23T03:27:09.440Z,101150.48
2019-02-23T03:29:58.970Z,101153.83
2019-02-23T03:32:48.673Z,101144.33
2019-02-23T03:35:38.324Z,101148.59
2019-02-23T03:38:27.821Z,101160.81
2019-02-23T03:41:17.293Z,101164.45
2019-02-23T03:44:06.831Z,101159.74
2019-02-23T03:46:56.121Z,101158.30
2019-02-23T03:49:45.687Z,101171.37
2019-02-23T03:52:35.325Z,101180.02
2019-02-23T03:55:24.538Z,101174.80
2019-02-23T03:58:14.147Z,101173.02
2019-02-23T04:01:03.867Z,101176.53
2019-02-23T04:03:53.356Z,101174.33
2019-02-23T04:06:42.591Z,101171.63
2019-02-23T04:09:31.994Z,101171.71
2019-02-23T04:12:21.252Z,101168.95
2019-02-23T04:15:10.767Z,101168.89
2019-02-23T04:18:00.301Z,101155.89
2019-02-23T04:21:01.303Z,101152.75
2019-02-23T04:23:41.516Z,101160.30
2019-02-23T04:26:31.050Z,101160.62
2019-02-23T04:29:20.549Z,101168.60
2019-02-23T04:32:10.161Z,101172.45
2019-02-23T04:34:59.452Z,101183.03
2019-02-23T04:37:48.735Z,101179.20
2019-02-23T04:40:38.377Z,101179.05
2019-02-23T04:43:27.936Z,101166.70
2019-02-23T04:46:17.238Z,101163.19
2019-02-23T04:49:06.938Z,101166.38
2019-02-23T04:51:56.450Z,101158.01
2019-02-23T04:54:45.678Z,101162.39
2019-02-23T04:57:35.140Z,101157.48
2019-02-23T05:00:24.830Z,101157.03
2019-02-23T05:03:14.511Z,101149.33
2019-02-23T05:06:03.893Z,101151.20
2019-02-23T05:08:53.379Z,101156.78
2019-02-23T05:11:42.924Z,101155.41
2019-02-23T05:14:32.476Z,101159.05
2019-02-23T05:17:22.003Z,101159.05
2019-02-23T05:20:11.387Z,101169.69
2019-02-23T05:23:00.886Z,101166.27
2019-02-23T05:25:50.249Z,101169.92
2019-02-23T05:28:40.729Z,101188.12
2019-02-23T05:31:30.784Z,101187.39
2019-02-23T05:34:20.495Z,101190.00
2019-02-23T05:37:10.140Z,101192.80
2019-02-23T05:39:59.649Z,101196.83
2019-02-23T05:43:00.122Z,101193.09
2019-02-23T05:45:40.128Z,101193.09
2019-02-23T05:48:29.328Z,101206.72
2019-02-23T05:51:18.775Z,101212.29
2019-02-23T05:54:08.318Z,101203.27
2019-02-23T05:56:57.640Z,101201.85
2019-02-23T05:59:47.313Z,101193.09
2019-02-23T06:02:36.467Z,101192.72
2019-02-23T06:05:25.792Z,101187.91
2019-02-23T06:08:15.020Z,101200.00
2019-02-23T06:11:04.542Z,101213.05
2019-02-23T06:13:53.879Z,101207.64
2019-02-23T06:16:43.570Z,101210.98
2019-02-23T06:19:33.203Z,101209.30
2019-02-23T06:22:22.864Z,101206.61
2019-02-23T06:25:12.735Z,101208.08
2019-02-23T06:28:02.309Z,101188.23
2019-02-23T06:30:51.890Z,101197.23
2019-02-23T06:33:41.294Z,101213.00
2019-02-23T06:36:31.126Z,101227.55
2019-02-23T06:39:20.830Z,101231.25
2019-02-23T06:42:10.103Z,101234.63
2019-02-23T06:44:59.698Z,101233.48
2019-02-23T06:47:48.991Z,101219.66
2019-02-23T06:50:38.638Z,101219.19
2019-02-23T06:53:28.137Z,101220.57
2019-02-23T06:56:18.017Z,101227.59
2019-02-23T06:59:07.367Z,101222.75
2019-02-23T07:01:56.844Z,101230.55
2019-02-23T07:04:46.249Z,101235.19
2019-02-23T07:07:35.531Z,101244.93
2019-02-23T07:10:24.866Z,101235.83
2019-02-23T07:13:14.587Z,101246.44
2019-02-23T07:16:04.271Z,101239.23
2019-02-23T07:18:53.959Z,101239.09
2019-02-23T07:21:43.238Z,101239.94
2019-02-23T07:24:32.622Z,101247.64
2019-02-23T07:27:22.101Z,101245.87
2019-02-23T07:30:11.911Z,101244.03
2019-02-23T07:33:01.692Z,101254.84
2019-02-23T07:35:51.287Z,101258.62
2019-02-23T07:38:40.525Z,101258.97
2019-02-23T07:41:30.136Z,101259.78
2019-02-23T07:44:19.358Z,101256.06
2019-02-23T07:47:08.731Z,101265.38
2019-02-23T07:49:58.349Z,101253.04
2019-02-23T07:52:47.718Z,101260.94
2019-02-23T07:55:37.215Z,101264.23
2019-02-23T07:58:26.845Z,101257.30
2019-02-23T08:01:16.394Z,101260.43
2019-02-23T08:04:05.976Z,101265.00
2019-02-23T08:06:55.641Z,101267.41
2019-02-23T08:09:47.078Z,101284.08
2019-02-23T08:12:36.455Z,101290.77
2019-02-23T08:15:25.862Z,101278.48
2019-02-23T08:18:15.363Z,101288.16
2019-02-23T08:21:05.031Z,101284.76
2019-02-23T08:23:54.699Z,101287.80
2019-02-23T08:26:31.243Z,101287.70
2019-02-23T08:29:03.765Z,101275.48
2019-02-23T08:31:36.424Z,101279.25
2019-02-23T08:34:09.533Z,101275.09
2019-02-23T08:36:45.024Z,101271.48
2019-02-23T08:39:16.765Z,101266.30
2019-02-23T08:41:50.402Z,101255.00
2019-02-23T08:44:23.199Z,101250.44
2019-02-23T08:46:54.487Z,101259.77
2019-02-23T08:49:25.838Z,101267.00
2019-02-23T08:51:57.380Z,101263.42
2019-02-23T08:54:28.683Z,101271.07
2019-02-23T08:56:59.948Z,101266.86
2019-02-23T08:59:32.100Z,101255.67
2019-02-23T09:02:03.398Z,101253.11
2019-02-23T09:04:35.010Z,101257.66
2019-02-23T09:07:06.697Z,101240.34
2019-02-23T09:09:38.214Z,101242.95
2019-02-23T09:12:09.791Z,101249.88
2019-02-23T09:14:41.264Z,101265.28
2019-02-23T09:17:13.297Z,101265.64
2019-02-23T09:19:44.601Z,101268.02
2019-02-23T09:22:15.864Z,101253.45
2019-02-23T09:24:47.347Z,101260.19
2019-02-23T09:27:19.173Z,101271.56
2019-02-23T09:29:50.790Z,101271.09
2019-02-23T09:32:22.305Z,101269.17
2019-02-23T09:34:53.928Z,101268.39
2019-02-23T09:37:29.247Z,101258.35
2019-02-23T09:40:01.798Z,101259.32
2019-02-23T09:42:34.942Z,101262.07
2019-02-23T09:45:07.894Z,101247.36
2019-02-23T09:47:40.886Z,101235.72
2019-02-23T09:50:12.843Z,101228.06
2019-02-23T09:52:44.466Z,101225.98
2019-02-23T09:55:16.046Z,101224.16
2019-02-23T09:57:47.493Z,101218.86
2019-02-23T10:00:18.751Z,101224.69
2019-02-23T10:02:51.180Z,101223.45
2019-02-23T10:05:25.132Z,101243.55
2019-02-23T10:07:56.609Z,101268.77
2019-02-23T10:10:28.235Z,101252.84
2019-02-23T10:13:00.305Z,101244.02
2019-02-23T10:15:33.737Z,101248.09
2019-02-23T10:18:05.036Z,101221.92
2019-02-23T10:20:41.473Z,101217.98
2019-02-23T10:23:21.454Z,101228.52
2019-02-23T10:25:47.311Z,101238.16
2019-02-23T10:28:18.566Z,101220.15
2019-02-23T10:30:50.127Z,101227.91
2019-02-23T10:33:21.598Z,101201.36
2019-02-23T10:35:53.104Z,101196.83
2019-02-23T10:38:24.672Z,101184.75
2019-02-23T10:40:55.927Z,101176.68
2019-02-23T10:43:27.487Z,101179.67
2019-02-23T10:45:59.759Z,101200.84
2019-02-23T10:48:31.365Z,101200.85
2019-02-23T10:51:03.060Z,101192.11
2019-02-23T10:53:34.573Z,101206.28
2019-02-23T10:56:06.204Z,101198.09
2019-02-23T10:58:37.889Z,101185.56
2019-02-23T11:01:09.518Z,101182.14
2019-02-23T11:03:41.034Z,101193.30
2019-02-23T11:06:12.917Z,101197.09
2019-02-23T11:08:44.421Z,101203.09
2019-02-23T11:11:15.674Z,101209.22
2019-02-23T11:13:47.415Z,101217.52
2019-02-23T11:16:19.616Z,101196.94
2019-02-23T11:18:51.093Z,101184.21
2019-02-23T11:21:22.395Z,101182.23
2019-02-23T11:23:54.260Z,101162.31
2019-02-23T11:26:25.873Z,101167.92
2019-02-23T11:28:57.579Z,101145.03
2019-02-23T11:31:29.208Z,101132.37
2019-02-23T11:34:00.853Z,101134.60
2019-02-23T11:36:32.608Z,101134.74
2019-02-23T11:39:04.388Z,101119.98
2019-02-23T11:41:35.631Z,101112.07
2019-02-23T11:44:07.728Z,101105.63
2019-02-23T11:46:39.289Z,101104.48
2019-02-23T11:49:10.940Z,101099.27
2019-02-23T11:51:42.252Z,101093.83
2019-02-23T11:54:13.985Z,101105.78
2019-02-23T11:56:45.570Z,101108.70
2019-02-23T11:59:17.250Z,101102.38
2019-02-23T12:01:48.787Z,101104.03
2019-02-23T12:04:20.376Z,101113.31
2019-02-23T12:06:51.817Z,101104.38
2019-02-23T12:09:23.538Z,101102.47
2019-02-23T12:11:55.418Z,101098.09
2019-02-23T12:14:26.754Z,101113.88
2019-02-23T12:16:58.242Z,101120.27
2019-02-23T12:19:31.094Z,101121.23
2019-02-23T12:22:12.031Z,101112.95
2019-02-23T12:24:41.935Z,101096.00
2019-02-23T12:27:13.836Z,101101.28
2019-02-23T12:29:45.069Z,101085.19
2019-02-23T12:32:16.873Z,101073.55
2019-02-23T12:34:48.688Z,101061.19
2019-02-23T12:37:20.279Z,101052.42
2019-02-23T12:39:51.526Z,101042.41
2019-02-23T12:42:23.588Z,101054.88
2019-02-23T12:44:55.489Z,101042.83
2019-02-23T12:47:27.084Z,101043.66
2019-02-23T12:49:59.184Z,101024.41
2019-02-23T12:52:30.429Z,101024.72
2019-02-23T12:55:01.967Z,101018.17
2019-02-23T12:57:33.531Z,101017.25
2019-02-23T13:00:04.952Z,101014.34
2019-02-23T13:02:36.755Z,101021.27
2019-02-23T13:05:08.547Z,101006.81
2019-02-23T13:07:39.926Z,100999.85
2019-02-23T13:10:11.651Z,100998.42
2019-02-23T13:13:33.295Z,100994.36
2019-02-23T13:16:34.082Z,100994.36
2019-02-23T13:20:04.810Z,100972.33
2019-02-23T13:23:14.708Z,100981.41
2019-02-23T13:26:05.182Z,100995.00
2019-02-23T13:29:15.852Z,100987.22
2019-02-23T13:32:17.203Z,100985.00
2019-02-23T13:35:40.700Z,100977.13
2019-02-23T13:38:38.295Z,100955.25
2019-02-23T13:41:35.611Z,100959.02
2019-02-23T13:45:07.516Z,100959.91
2019-02-23T13:48:11.177Z,100961.10
2019-02-23T13:51:12.326Z,100943.39
2019-02-23T13:54:44.169Z,100935.17
2019-02-23T13:57:58.005Z,100924.66
2019-02-23T14:01:07.575Z,100913.58
2019-02-23T14:04:08.796Z,100917.95
2019-02-23T14:07:38.972Z,100914.23
2019-02-23T14:10:59.342Z,100912.83
2019-02-23T14:14:06.858Z,100921.50
2019-02-23T14:17:04.089Z,100914.52
2019-02-23T14:20:29.359Z,100899.24
2019-02-23T14:23:38.658Z,100904.87
2019-02-23T14:27:09.756Z,100901.48
2019-02-23T14:30:08.347Z,100893.69
2019-02-23T14:33:31.522Z,100899.69
2019-02-23T14:36:25.828Z,100898.42
2019-02-23T14:39:37.692Z,100895.63
2019-02-23T14:42:51.810Z,100882.34
2019-02-23T14:46:07.066Z,100881.03
2019-02-23T14:48:50.024Z,100887.31
2019-02-23T14:52:16.567Z,100879.05
2019-02-23T14:55:12.079Z,100875.23
2019-02-23T14:58:15.271Z,100865.73
2019-02-23T15:01:25.589Z,100869.16
2019-02-23T15:04:15.368Z,100869.55
2019-02-23T15:07:22.158Z,100869.55
2019-02-23T15:10:57.762Z,100868.48
2019-02-23T15:14:26.174Z,100877.94
2019-02-23T15:17:55.040Z,100877.52
2019-02-23T15:20:47.241Z,100884.40
2019-02-23T15:23:34.961Z,100884.33
2019-02-23T15:26:32.346Z,100878.27
2019-02-23T15:29:30.263Z,100880.91
2019-02-23T15:32:58.559Z,100880.16
2019-02-23T15:35:55.019Z,100892.70
2019-02-23T15:39:09.509Z,100897.57
2019-02-23T15:42:34.072Z,100897.57
2019-02-23T15:45:41.902Z,100902.92
2019-02-23T15:48:47.202Z,100894.30
2019-02-23T15:51:18.605Z,100897.30
2019-02-23T15:53:51.538Z,100884.20
2019-02-23T15:56:23.564Z,100892.62
2019-02-23T15:58:57.435Z,100894.02
2019-02-23T16:01:30.236Z,100888.47
2019-02-23T16:04:01.947Z,100900.55
2019-02-23T16:06:35.212Z,100946.70
2019-02-23T16:09:08.913Z,100915.42
2019-02-23T16:11:45.103Z,100912.95
2019-02-23T16:14:16.781Z,100913.22
2019-02-23T16:16:48.162Z,100916.28
2019-02-23T16:19:21.839Z,100920.73
2019-02-23T16:21:56.230Z,100921.91
2019-02-23T16:24:30.245Z,100935.27
2019-02-23T16:27:05.923Z,100935.05
2019-02-23T16:29:38.926Z,100932.22
2019-02-23T16:32:12.249Z,100930.89
2019-02-23T16:34:43.973Z,100931.52
2019-02-23T16:37:16.630Z,100942.33
2019-02-23T16:39:47.955Z,100953.82
2019-02-23T16:42:21.630Z,100972.87
2019-02-23T16:44:55.481Z,100974.51
2019-02-23T16:47:27.668Z,100983.40
2019-02-23T16:50:00.427Z,100994.13
2019-02-23T16:52:34.424Z,100986.47
2019-02-23T16:55:08.165Z,100999.78
2019-02-23T16:57:43.770Z,101000.91
2019-02-23T17:00:16.165Z,101007.31
2019-02-23T17:02:47.856Z,101017.27
2019-02-23T17:05:20.819Z,101020.58
2019-02-23T17:07:53.714Z,101039.41
2019-02-23T17:10:25.477Z,101044.80
2019-02-23T17:12:57.553Z,101051.52
2019-02-23T17:15:30.494Z,101050.34
2019-02-23T17:18:01.813Z,101056.08
2019-02-23T17:20:35.348Z,101060.18
2019-02-23T17:23:11.595Z,101063.20
2019-02-23T17:25:43.236Z,101067.02
2019-02-23T17:28:17.212Z,101071.34
2019-02-23T17:30:48.504Z,101061.66
2019-02-23T17:33:21.961Z,101064.89
2019-02-23T17:35:53.315Z,101074.33
2019-02-23T17:38:26.907Z,101085.06
2019-02-23T17:40:58.403Z,101083.99
2019-02-23T17:43:33.329Z,101080.06
2019-02-23T17:46:05.243Z,101070.54
2019-02-23T17:48:37.601Z,101066.84
2019-02-23T17:51:11.249Z,101059.91
2019-02-23T17:53:45.072Z,101050.03
2019-02-23T17:56:18.939Z,101044.31
2019-02-23T17:58:52.367Z,101039.30
2019-02-23T18:01:23.619Z,101038.83
2019-02-23T18:03:57.790Z,101028.44
2019-02-23T18:06:32.939Z,101021.31
2019-02-23T18:09:05.943Z,101017.84
2019-02-23T18:11:39.879Z,101023.66
2019-02-23T18:14:13.320Z,101018.08
2019-02-23T18:16:49.145Z,101014.75
2019-02-23T18:19:23.537Z,101019.86
2019-02-23T18:21:55.914Z,101013.77
2019-02-23T18:24:28.960Z,101016.16
2019-02-23T18:27:03.242Z,101023.66
2019-02-23T18:29:36.826Z,101023.08
2019-02-23T18:32:08.744Z,101029.26
2019-02-23T18:34:41.846Z,101027.01
2019-02-23T18:37:13.384Z,101033.19
2019-02-23T18:39:47.211Z,101035.70
2019-02-23T18:42:21.292Z,101024.94
2019-02-23T18:44:55.168Z,101030.17
2019-02-23T18:47:29.146Z,101030.67
2019-02-23T18:50:03.010Z,101020.42
2019-02-23T18:52:36.482Z,101015.64
2019-02-23T18:55:08.411Z,101015.16
2019-02-23T18:57:41.692Z,101004.19
2019-02-23T19:00:24.224Z,101002.27
2019-02-23T19:02:51.606Z,101009.66
2019-02-23T19:05:23.505Z,101007.38
2019-02-23T19:07:57.444Z,101001.28
2019-02-23T19:10:30.435Z,101000.34
2019-02-23T19:13:02.078Z,100995.11
2019-02-23T19:15:38.150Z,101001.78
2019-02-23T19:18:09.988Z,100995.94
2019-02-23T19:20:42.879Z,101000.93
2019-02-23T19:23:14.742Z,101010.56
2019-02-23T19:25:47.789Z,101010.42
2019-02-23T19:28:19.581Z,101010.67
2019-02-23T19:30:50.896Z,101013.62
2019-02-23T19:33:24.385Z,101025.27
2019-02-23T19:35:56.339Z,101027.61
2019-02-23T19:38:30.319Z,101025.80
2019-02-23T19:41:04.213Z,101021.29
2019-02-23T19:43:38.023Z,101016.52
2019-02-23T19:46:11.738Z,101013.88
2019-02-23T19:48:43.027Z,101030.15
2019-02-23T19:51:14.934Z,101035.10
2019-02-23T19:53:47.768Z,101041.30
2019-02-23T19:56:21.611Z,101052.92
2019-02-23T19:58:54.370Z,101041.73
2019-02-23T20:01:26.431Z,101036.63
2019-02-23T20:04:00.264Z,101044.48
2019-02-23T20:06:31.819Z,101049.80
2019-02-23T20:09:05.382Z,101056.34
2019-02-23T20:11:36.777Z,101050.27
2019-02-23T20:14:08.057Z,101052.17
2019-02-23T20:16:43.639Z,101047.88
2019-02-23T20:19:15.708Z,101049.93
2019-02-23T20:21:48.095Z,101048.25
2019-02-23T20:24:20.597Z,101050.02
2019-02-23T20:26:55.818Z,101043.86
2019-02-23T20:29:28.233Z,101046.69
2019-02-23T20:31:59.502Z,101045.22
2019-02-23T20:34:31.515Z,101046.28
2019-02-23T20:37:02.908Z,101032.02
2019-02-23T20:39:35.207Z,101025.69
2019-02-23T20:42:08.984Z,101025.69
2019-02-23T20:44:42.825Z,101027.59
2019-02-23T20:47:17.359Z,101027.59
2019-02-23T20:49:50.262Z,101036.38
2019-02-23T20:52:21.886Z,101033.59
2019-02-23T20:54:56.951Z,101031.19
2019-02-23T20:57:33.295Z,101025.24
2019-02-23T21:00:06.971Z,101025.80
2019-02-23T21:02:38.545Z,101024.58
2019-02-23T21:05:11.010Z,101022.08
2019-02-23T21:07:42.498Z,101026.34
2019-02-23T21:10:15.485Z,101027.65
2019-02-23T21:12:47.801Z,101021.67
2019-02-23T21:15:21.525Z,101033.14
2019-02-23T21:17:54.631Z,101014.75
2019-02-23T21:20:26.489Z,101007.87
2019-02-23T21:22:59.379Z,101013.56
2019-02-23T21:25:31.466Z,101017.95
2019-02-23T21:28:05.172Z,101003.95
2019-02-23T21:30:36.434Z,101005.25
2019-02-23T21:33:08.335Z,101009.52
2019-02-23T21:35:42.806Z,101006.77
2019-02-23T21:38:14.764Z,101008.88
2019-02-23T21:40:48.241Z,101008.24
2019-02-23T21:43:21.543Z,101009.64
2019-02-23T21:45:54.440Z,101015.96
2019-02-23T21:48:27.408Z,101012.63
2019-02-23T21:50:58.783Z,101013.55
2019-02-23T21:53:30.126Z,101016.03
2019-02-23T21:56:04.105Z,101011.39
2019-02-23T21:58:38.135Z,101008.02
2019-02-23T22:01:12.038Z,101012.91
2019-02-23T22:03:44.894Z,101018.89
2019-02-23T22:06:16.798Z,101020.01
2019-02-23T22:08:49.229Z,101007.30
2019-02-23T22:11:21.529Z,101010.33
2019-02-23T22:13:52.794Z,101004.17
2019-02-23T22:16:27.760Z,101009.66
2019-02-23T22:19:00.272Z,101003.24
2019-02-23T22:21:32.459Z,100992.01
2019-02-23T22:24:07.346Z,101002.05
2019-02-23T22:26:41.140Z,100997.28
2019-02-23T22:29:12.970Z,101004.28
2019-02-23T22:31:44.233Z,101001.67
2019-02-23T22:34:16.132Z,100984.78
2019-02-23T22:36:48.434Z,100989.45
2019-02-23T22:39:22.636Z,100992.09
2019-02-23T22:41:56.101Z,100994.45
2019-02-23T22:44:27.418Z,100999.73
2019-02-23T22:47:01.368Z,100979.91
2019-02-23T22:49:35.299Z,100980.00
2019-02-23T22:52:06.583Z,100979.80
2019-02-23T22:54:40.126Z,100976.16
2019-02-23T22:57:14.116Z,100970.42
2019-02-23T22:59:49.433Z,100969.32
2019-02-23T23:02:25.258Z,100968.55
2019-02-23T23:04:58.625Z,100971.45
2019-02-23T23:07:31.420Z,100975.44
2019-02-23T23:10:06.301Z,100972.60
2019-02-23T23:12:40.832Z,100975.34
2019-02-23T23:15:13.334Z,100968.42
2019-02-23T23:17:44.682Z,100966.40
2019-02-23T23:20:16.115Z,100955.11
2019-02-23T23:22:48.304Z,100965.21
2019-02-23T23:25:19.820Z,100963.58
2019-02-23T23:27:51.843Z,100972.61
2019-02-23T23:30:26.344Z,100967.80
2019-02-23T23:32:58.595Z,100971.56
2019-02-23T23:35:32.138Z,100961.84
2019-02-23T23:38:06.335Z,100963.16
2019-02-23T23:40:37.868Z,100968.11
2019-02-23T23:43:12.227Z,100968.20
2019-02-23T23:45:45.032Z,100860.02
2019-02-23T23:48:19.059Z,100967.09
2019-02-23T23:50:52.024Z,100978.91
2019-02-23T23:53:23.820Z,100979.23
2019-02-23T23:55:57.948Z,100973.02
2019-02-23T23:58:29.210Z,100968.20
